sensor_id;sensor_type;location;lat;lon;timestamp;pressure;altitude;pressure_sealevel;temperature;humidity
4469;BME280;2247;42.666;23.292;2023-01-30T00:00:09;94598.78;;;3.25;60.83
4469;BME280;2247;42.666;23.292;2023-01-30T00:02:44;94630.09;;;3.37;60.93
4469;BME280;2247;42.666;23.292;2023-01-30T00:05:16;94615.00;;;3.57;60.76
4469;BME280;2247;42.666;23.292;2023-01-30T00:07:47;94596.38;;;3.42;60.68
4469;BME280;2247;42.666;23.292;2023-01-30T00:10:21;94589.03;;;3.50;60.45
4469;BME280;2247;42.666;23.292;2023-01-30T00:12:58;94620.44;;;3.67;60.18
4469;BME280;2247;42.666;23.292;2023-01-30T02:01:53;94568.22;;;3.50;59.15
4469;BME280;2247;42.666;23.292;2023-01-30T02:09:45;94572.63;;;3.20;59.03
4469;BME280;2247;42.666;23.292;2023-01-30T02:14:52;94572.41;;;3.22;59.06
4469;BME280;2247;42.666;23.292;2023-01-30T02:17:22;94560.53;;;3.26;59.24
4469;BME280;2247;42.666;23.292;2023-01-30T02:22:38;94576.84;;;3.33;58.99
4469;BME280;2247;42.666;23.292;2023-01-30T04:04:44;94504.41;;;3.30;58.31
4469;BME280;2247;42.666;23.292;2023-01-30T04:07:29;94490.22;;;3.14;58.92
4469;BME280;2247;42.666;23.292;2023-01-30T04:41:18;94502.13;;;3.22;60.74
4469;BME280;2247;42.666;23.292;2023-01-30T04:43:50;94501.72;;;3.06;61.36
4469;BME280;2247;42.666;23.292;2023-01-30T04:59:29;94498.41;;;3.29;61.79
4469;BME280;2247;42.666;23.292;2023-01-30T05:04:42;94478.19;;;3.54;61.47
4469;BME280;2247;42.666;23.292;2023-01-30T05:09:46;94453.25;;;2.94;62.48
4469;BME280;2247;42.666;23.292;2023-01-30T05:36:06;94504.25;;;3.78;61.15
4469;BME280;2247;42.666;23.292;2023-01-30T05:41:25;94474.59;;;3.14;62.37
4469;BME280;2247;42.666;23.292;2023-01-30T05:43:54;94480.41;;;3.28;62.41
4469;BME280;2247;42.666;23.292;2023-01-30T05:46:22;94489.78;;;3.17;62.90
4469;BME280;2247;42.666;23.292;2023-01-30T05:48:50;94488.31;;;3.33;62.41
4469;BME280;2247;42.666;23.292;2023-01-30T05:51:25;94476.06;;;3.10;63.18
4469;BME280;2247;42.666;23.292;2023-01-30T05:53:53;94487.47;;;3.09;63.27
4469;BME280;2247;42.666;23.292;2023-01-30T05:56:24;94505.72;;;3.21;63.26
4469;BME280;2247;42.666;23.292;2023-01-30T05:58:54;94521.16;;;3.34;63.31
4469;BME280;2247;42.666;23.292;2023-01-30T06:04:12;94514.16;;;3.34;63.17
4469;BME280;2247;42.666;23.292;2023-01-30T06:11:51;94506.13;;;3.36;63.15
4469;BME280;2247;42.666;23.292;2023-01-30T06:14:20;94513.50;;;3.39;63.29
4469;BME280;2247;42.666;23.292;2023-01-30T06:16:47;94499.84;;;3.25;63.29
4469;BME280;2247;42.666;23.292;2023-01-30T06:24:26;94493.50;;;3.21;63.73
4469;BME280;2247;42.666;23.292;2023-01-30T06:26:57;94501.81;;;3.30;63.56
4469;BME280;2247;42.666;23.292;2023-01-30T06:29:25;94501.13;;;3.34;63.40
4469;BME280;2247;42.666;23.292;2023-01-30T06:31:52;94502.28;;;3.38;63.31
4469;BME280;2247;42.666;23.292;2023-01-30T06:34:19;94496.88;;;3.51;62.51
4469;BME280;2247;42.666;23.292;2023-01-30T06:36:46;94494.91;;;3.47;62.74
4469;BME280;2247;42.666;23.292;2023-01-30T06:39:12;94498.56;;;3.58;62.75
4469;BME280;2247;42.666;23.292;2023-01-30T06:41:40;94501.59;;;3.43;62.57
4469;BME280;2247;42.666;23.292;2023-01-30T06:44:09;94501.81;;;3.41;62.54
4469;BME280;2247;42.666;23.292;2023-01-30T06:46:36;94498.97;;;3.31;62.98
4469;BME280;2247;42.666;23.292;2023-01-30T06:51:38;94502.78;;;3.17;63.67
4469;BME280;2247;42.666;23.292;2023-01-30T06:54:06;94505.41;;;3.17;63.45
4469;BME280;2247;42.666;23.292;2023-01-30T06:59:21;94508.69;;;3.24;63.37
4469;BME280;2247;42.666;23.292;2023-01-30T07:01:48;94513.22;;;3.29;63.19
4469;BME280;2247;42.666;23.292;2023-01-30T07:04:15;94514.34;;;3.33;62.73
4469;BME280;2247;42.666;23.292;2023-01-30T07:06:42;94513.50;;;3.39;62.61
4469;BME280;2247;42.666;23.292;2023-01-30T07:09:11;94506.34;;;3.34;62.35
4469;BME280;2247;42.666;23.292;2023-01-30T07:11:40;94514.25;;;3.28;62.11
4469;BME280;2247;42.666;23.292;2023-01-30T07:14:08;94513.91;;;3.24;62.19
4469;BME280;2247;42.666;23.292;2023-01-30T07:16:37;94513.81;;;3.01;62.39
4469;BME280;2247;42.666;23.292;2023-01-30T07:19:04;94529.63;;;3.17;63.04
4469;BME280;2247;42.666;23.292;2023-01-30T07:21:32;94523.84;;;3.27;62.54
4469;BME280;2247;42.666;23.292;2023-01-30T07:24:01;94535.06;;;3.28;62.50
4469;BME280;2247;42.666;23.292;2023-01-30T07:26:27;94516.75;;;3.34;62.31
4469;BME280;2247;42.666;23.292;2023-01-30T07:28:55;94513.00;;;3.30;62.38
4469;BME280;2247;42.666;23.292;2023-01-30T07:31:22;94520.72;;;3.37;62.36
4469;BME280;2247;42.666;23.292;2023-01-30T07:33:50;94526.66;;;3.55;62.12
4469;BME280;2247;42.666;23.292;2023-01-30T07:36:20;94531.47;;;3.40;62.19
4469;BME280;2247;42.666;23.292;2023-01-30T07:38:48;94535.00;;;3.46;62.41
4469;BME280;2247;42.666;23.292;2023-01-30T07:41:14;94542.53;;;3.66;61.81
4469;BME280;2247;42.666;23.292;2023-01-30T07:43:41;94539.94;;;3.66;61.35
4469;BME280;2247;42.666;23.292;2023-01-30T07:46:10;94525.53;;;3.63;60.87
4469;BME280;2247;42.666;23.292;2023-01-30T07:48:40;94540.06;;;3.82;60.57
4469;BME280;2247;42.666;23.292;2023-01-30T07:51:09;94540.53;;;3.79;60.39
4469;BME280;2247;42.666;23.292;2023-01-30T07:53:37;94542.88;;;3.81;60.41
4469;BME280;2247;42.666;23.292;2023-01-30T07:56:06;94539.03;;;3.72;60.20
4469;BME280;2247;42.666;23.292;2023-01-30T07:58:33;94532.22;;;3.71;60.52
4469;BME280;2247;42.666;23.292;2023-01-30T08:01:00;94521.84;;;3.94;59.68
4469;BME280;2247;42.666;23.292;2023-01-30T08:03:28;94512.53;;;3.98;59.56
4469;BME280;2247;42.666;23.292;2023-01-30T08:05:55;94508.47;;;3.79;59.59
4469;BME280;2247;42.666;23.292;2023-01-30T08:08:23;94481.94;;;3.82;59.38
4469;BME280;2247;42.666;23.292;2023-01-30T08:10:52;94506.97;;;3.94;58.91
4469;BME280;2247;42.666;23.292;2023-01-30T08:13:19;94501.06;;;3.87;59.21
4469;BME280;2247;42.666;23.292;2023-01-30T08:15:47;94506.06;;;3.77;59.26
4469;BME280;2247;42.666;23.292;2023-01-30T08:18:14;94506.06;;;3.77;59.31
4469;BME280;2247;42.666;23.292;2023-01-30T08:20:41;94499.63;;;3.80;59.41
4469;BME280;2247;42.666;23.292;2023-01-30T08:23:10;94503.78;;;3.81;58.93
4469;BME280;2247;42.666;23.292;2023-01-30T08:25:39;94486.69;;;3.62;59.30
4469;BME280;2247;42.666;23.292;2023-01-30T08:28:06;94498.72;;;3.97;58.19
4469;BME280;2247;42.666;23.292;2023-01-30T08:30:33;94495.53;;;3.84;58.69
4469;BME280;2247;42.666;23.292;2023-01-30T08:33:00;94497.78;;;4.15;58.17
4469;BME280;2247;42.666;23.292;2023-01-30T08:35:27;94488.75;;;4.06;57.61
4469;BME280;2247;42.666;23.292;2023-01-30T08:37:54;94491.69;;;3.98;57.28
4469;BME280;2247;42.666;23.292;2023-01-30T08:40:40;94477.41;;;3.89;58.00
4469;BME280;2247;42.666;23.292;2023-01-30T08:43:08;94485.31;;;4.17;57.26
4469;BME280;2247;42.666;23.292;2023-01-30T08:45:35;94456.66;;;4.06;56.76
4469;BME280;2247;42.666;23.292;2023-01-30T08:48:04;94478.66;;;4.21;56.45
4469;BME280;2247;42.666;23.292;2023-01-30T08:53:07;94472.19;;;4.12;56.31
4469;BME280;2247;42.666;23.292;2023-01-30T08:55:37;94469.91;;;4.16;56.17
4469;BME280;2247;42.666;23.292;2023-01-30T08:58:07;94478.53;;;4.28;56.21
4469;BME280;2247;42.666;23.292;2023-01-30T09:00:36;94468.16;;;4.45;55.78
4469;BME280;2247;42.666;23.292;2023-01-30T09:03:09;94450.72;;;4.22;55.13
4469;BME280;2247;42.666;23.292;2023-01-30T09:05:37;94450.25;;;4.36;55.11
4469;BME280;2247;42.666;23.292;2023-01-30T09:08:04;94456.72;;;4.46;54.66
4469;BME280;2247;42.666;23.292;2023-01-30T09:10:31;94451.75;;;4.32;54.78
4469;BME280;2247;42.666;23.292;2023-01-30T09:12:58;94453.13;;;4.35;55.04
4469;BME280;2247;42.666;23.292;2023-01-30T09:15:27;94454.03;;;4.17;55.47
4469;BME280;2247;42.666;23.292;2023-01-30T09:17:55;94453.59;;;4.09;55.60
4469;BME280;2247;42.666;23.292;2023-01-30T09:20:22;94452.78;;;4.08;55.63
4469;BME280;2247;42.666;23.292;2023-01-30T09:22:50;94446.53;;;4.32;55.50
4469;BME280;2247;42.666;23.292;2023-01-30T09:25:17;94442.59;;;3.95;55.67
4469;BME280;2247;42.666;23.292;2023-01-30T09:27:47;94444.97;;;4.08;55.91
4469;BME280;2247;42.666;23.292;2023-01-30T09:30:14;94447.72;;;4.13;56.06
4469;BME280;2247;42.666;23.292;2023-01-30T09:32:43;94439.41;;;4.16;56.47
4469;BME280;2247;42.666;23.292;2023-01-30T09:35:10;94445.19;;;4.18;57.07
4469;BME280;2247;42.666;23.292;2023-01-30T09:37:37;94444.41;;;4.18;57.25
4469;BME280;2247;42.666;23.292;2023-01-30T09:40:04;94437.28;;;4.13;57.80
4469;BME280;2247;42.666;23.292;2023-01-30T09:43:04;94445.22;;;3.95;58.28
4469;BME280;2247;42.666;23.292;2023-01-30T09:45:44;94427.22;;;3.82;58.52
4469;BME280;2247;42.666;23.292;2023-01-30T09:48:20;94435.50;;;3.79;59.05
4469;BME280;2247;42.666;23.292;2023-01-30T09:50:58;94429.47;;;3.90;58.90
4469;BME280;2247;42.666;23.292;2023-01-30T09:53:32;94424.50;;;3.88;59.10
4469;BME280;2247;42.666;23.292;2023-01-30T09:56:03;94427.22;;;3.82;59.51
4469;BME280;2247;42.666;23.292;2023-01-30T09:58:43;94412.28;;;3.66;59.92
4469;BME280;2247;42.666;23.292;2023-01-30T10:01:17;94414.63;;;3.67;59.95
4469;BME280;2247;42.666;23.292;2023-01-30T10:04:04;94420.13;;;4.17;63.31
4469;BME280;2247;42.666;23.292;2023-01-30T10:06:42;94403.56;;;4.35;60.42
4469;BME280;2247;42.666;23.292;2023-01-30T10:09:14;94413.13;;;4.18;59.22
4469;BME280;2247;42.666;23.292;2023-01-30T10:11:54;94400.44;;;4.10;59.31
4469;BME280;2247;42.666;23.292;2023-01-30T10:14:43;94389.59;;;3.89;59.40
4469;BME280;2247;42.666;23.292;2023-01-30T10:17:30;94381.69;;;3.84;59.33
4469;BME280;2247;42.666;23.292;2023-01-30T10:20:10;94371.63;;;3.65;59.58
4469;BME280;2247;42.666;23.292;2023-01-30T10:22:49;94380.22;;;3.53;59.70
4469;BME280;2247;42.666;23.292;2023-01-30T10:25:27;94365.19;;;3.44;59.84
4469;BME280;2247;42.666;23.292;2023-01-30T10:28:00;94369.69;;;3.48;59.70
4469;BME280;2247;42.666;23.292;2023-01-30T10:30:27;94372.78;;;3.45;59.73
4469;BME280;2247;42.666;23.292;2023-01-30T10:32:57;94353.19;;;3.31;59.78
4469;BME280;2247;42.666;23.292;2023-01-30T10:35:33;94356.22;;;3.51;59.28
4469;BME280;2247;42.666;23.292;2023-01-30T10:38:09;94354.75;;;3.44;59.11
4469;BME280;2247;42.666;23.292;2023-01-30T10:40:43;94340.84;;;3.38;58.59
4469;BME280;2247;42.666;23.292;2023-01-30T10:48:39;94324.63;;;2.90;60.15
4469;BME280;2247;42.666;23.292;2023-01-30T10:51:20;94319.75;;;3.05;59.56
4469;BME280;2247;42.666;23.292;2023-01-30T10:53:54;94307.91;;;3.09;59.93
4469;BME280;2247;42.666;23.292;2023-01-30T10:56:33;94298.38;;;3.14;59.39
4469;BME280;2247;42.666;23.292;2023-01-30T10:59:10;94301.88;;;3.20;59.50
4469;BME280;2247;42.666;23.292;2023-01-30T11:01:43;94295.34;;;3.29;59.25
4469;BME280;2247;42.666;23.292;2023-01-30T11:04:15;94288.88;;;3.43;58.93
4469;BME280;2247;42.666;23.292;2023-01-30T11:06:47;94284.09;;;3.40;58.87
4469;BME280;2247;42.666;23.292;2023-01-30T11:09:14;94282.28;;;3.41;58.68
4469;BME280;2247;42.666;23.292;2023-01-30T11:11:47;94272.75;;;3.46;58.65
4469;BME280;2247;42.666;23.292;2023-01-30T11:14:15;94264.75;;;3.36;58.73
4469;BME280;2247;42.666;23.292;2023-01-30T11:16:44;94262.84;;;3.32;59.05
4469;BME280;2247;42.666;23.292;2023-01-30T11:19:13;94260.34;;;3.37;58.74
4469;BME280;2247;42.666;23.292;2023-01-30T11:21:41;94258.53;;;3.37;58.33
4469;BME280;2247;42.666;23.292;2023-01-30T11:24:17;94250.28;;;3.29;58.85
4469;BME280;2247;42.666;23.292;2023-01-30T11:26:45;94231.03;;;3.30;59.02
4469;BME280;2247;42.666;23.292;2023-01-30T11:29:24;94230.44;;;3.51;58.72
4469;BME280;2247;42.666;23.292;2023-01-30T11:31:52;94233.34;;;3.66;58.65
4469;BME280;2247;42.666;23.292;2023-01-30T11:34:21;94230.91;;;3.76;58.45
4469;BME280;2247;42.666;23.292;2023-01-30T11:36:49;94233.06;;;3.79;57.78
4469;BME280;2247;42.666;23.292;2023-01-30T11:39:27;94222.63;;;3.79;58.05
4469;BME280;2247;42.666;23.292;2023-01-30T11:42:00;94221.38;;;3.82;57.73
4469;BME280;2247;42.666;23.292;2023-01-30T11:44:30;94214.13;;;3.84;57.57
4469;BME280;2247;42.666;23.292;2023-01-30T11:47:00;94201.59;;;3.69;57.73
4469;BME280;2247;42.666;23.292;2023-01-30T11:49:32;94204.63;;;3.78;57.81
4469;BME280;2247;42.666;23.292;2023-01-30T11:52:03;94188.19;;;3.77;57.62
4469;BME280;2247;42.666;23.292;2023-01-30T11:54:33;94169.47;;;3.64;57.96
4469;BME280;2247;42.666;23.292;2023-01-30T11:57:04;94185.97;;;3.69;58.15
4469;BME280;2247;42.666;23.292;2023-01-30T11:59:34;94179.28;;;3.90;57.78
4469;BME280;2247;42.666;23.292;2023-01-30T12:02:04;94175.75;;;3.96;57.74
4469;BME280;2247;42.666;23.292;2023-01-30T12:04:35;94172.22;;;4.19;57.41
4469;BME280;2247;42.666;23.292;2023-01-30T12:07:12;94148.78;;;4.35;56.42
4469;BME280;2247;42.666;23.292;2023-01-30T12:09:43;94156.28;;;4.32;56.29
4469;BME280;2247;42.666;23.292;2023-01-30T12:12:27;94147.94;;;4.52;55.89
4469;BME280;2247;42.666;23.292;2023-01-30T12:15:02;94143.22;;;4.49;55.64
4469;BME280;2247;42.666;23.292;2023-01-30T12:17:36;94148.34;;;4.44;55.19
4469;BME280;2247;42.666;23.292;2023-01-30T12:20:13;94146.38;;;4.51;55.93
4469;BME280;2247;42.666;23.292;2023-01-30T12:22:46;94130.66;;;4.62;55.10
4469;BME280;2247;42.666;23.292;2023-01-30T12:25:22;94134.66;;;4.70;54.92
4469;BME280;2247;42.666;23.292;2023-01-30T12:28:00;94139.72;;;4.77;53.43
4469;BME280;2247;42.666;23.292;2023-01-30T12:30:32;94118.84;;;4.60;52.39
4469;BME280;2247;42.666;23.292;2023-01-30T12:33:03;94119.50;;;4.50;52.25
4469;BME280;2247;42.666;23.292;2023-01-30T12:35:44;94133.72;;;4.59;52.34
4469;BME280;2247;42.666;23.292;2023-01-30T12:38:27;94099.03;;;4.81;51.36
4469;BME280;2247;42.666;23.292;2023-01-30T12:41:09;94120.03;;;4.69;51.58
4469;BME280;2247;42.666;23.292;2023-01-30T12:43:52;94113.97;;;5.07;50.62
4469;BME280;2247;42.666;23.292;2023-01-30T12:46:40;94101.66;;;5.02;50.50
4469;BME280;2247;42.666;23.292;2023-01-30T12:49:24;94101.69;;;5.29;49.25
4469;BME280;2247;42.666;23.292;2023-01-30T12:52:05;94089.75;;;5.11;49.71
4469;BME280;2247;42.666;23.292;2023-01-30T12:54:43;94083.16;;;5.04;50.01
4469;BME280;2247;42.666;23.292;2023-01-30T12:57:25;94095.59;;;4.97;50.13
4469;BME280;2247;42.666;23.292;2023-01-30T13:00:06;94095.03;;;5.17;49.79
4469;BME280;2247;42.666;23.292;2023-01-30T13:02:51;94094.03;;;5.44;49.26
4469;BME280;2247;42.666;23.292;2023-01-30T13:05:34;94090.41;;;5.24;49.48
4469;BME280;2247;42.666;23.292;2023-01-30T13:08:11;94077.72;;;5.32;49.19
4469;BME280;2247;42.666;23.292;2023-01-30T13:10:47;94076.34;;;5.25;49.36
4469;BME280;2247;42.666;23.292;2023-01-30T13:13:23;94087.81;;;5.24;49.38
4469;BME280;2247;42.666;23.292;2023-01-30T13:15:57;94088.00;;;5.17;49.57
4469;BME280;2247;42.666;23.292;2023-01-30T13:18:31;94096.13;;;5.21;49.77
4469;BME280;2247;42.666;23.292;2023-01-30T13:21:10;94090.91;;;5.21;49.77
4469;BME280;2247;42.666;23.292;2023-01-30T13:23:50;94083.25;;;5.14;49.83
4469;BME280;2247;42.666;23.292;2023-01-30T13:26:27;94077.94;;;5.04;49.96
4469;BME280;2247;42.666;23.292;2023-01-30T13:29:04;94080.44;;;5.21;50.27
4469;BME280;2247;42.666;23.292;2023-01-30T13:31:36;94061.38;;;5.20;49.84
4469;BME280;2247;42.666;23.292;2023-01-30T13:34:11;94056.94;;;5.21;50.24
4469;BME280;2247;42.666;23.292;2023-01-30T13:36:43;94064.97;;;5.14;50.08
4469;BME280;2247;42.666;23.292;2023-01-30T13:39:15;94056.06;;;5.10;50.20
4469;BME280;2247;42.666;23.292;2023-01-30T13:41:52;94059.03;;;5.19;50.87
4469;BME280;2247;42.666;23.292;2023-01-30T13:44:25;94047.19;;;5.11;51.75
4469;BME280;2247;42.666;23.292;2023-01-30T13:46:57;94045.84;;;5.08;52.52
4469;BME280;2247;42.666;23.292;2023-01-30T13:49:29;94046.41;;;5.10;52.67
4469;BME280;2247;42.666;23.292;2023-01-30T13:52:07;94049.31;;;4.92;53.43
4469;BME280;2247;42.666;23.292;2023-01-30T13:54:51;94049.31;;;4.92;53.83
4469;BME280;2247;42.666;23.292;2023-01-30T13:57:29;94057.22;;;4.75;53.96
4469;BME280;2247;42.666;23.292;2023-01-30T14:00:21;94051.78;;;4.77;54.68
4469;BME280;2247;42.666;23.292;2023-01-30T14:03:14;94049.88;;;4.94;54.57
4469;BME280;2247;42.666;23.292;2023-01-30T14:06:11;94039.00;;;4.81;54.55
4469;BME280;2247;42.666;23.292;2023-01-30T14:08:48;94038.63;;;4.50;55.14
4469;BME280;2247;42.666;23.292;2023-01-30T14:11:35;94045.34;;;4.63;54.75
4469;BME280;2247;42.666;23.292;2023-01-30T14:14:18;94027.50;;;4.55;54.85
4469;BME280;2247;42.666;23.292;2023-01-30T14:16:51;94052.81;;;4.38;55.13
4469;BME280;2247;42.666;23.292;2023-01-30T14:19:29;94051.00;;;4.38;55.28
4469;BME280;2247;42.666;23.292;2023-01-30T14:21:59;94042.72;;;4.24;55.97
4469;BME280;2247;42.666;23.292;2023-01-30T14:24:28;94047.19;;;4.07;55.74
4469;BME280;2247;42.666;23.292;2023-01-30T14:27:03;94057.28;;;4.04;56.28
4469;BME280;2247;42.666;23.292;2023-01-30T14:29:54;94047.66;;;4.21;55.99
4469;BME280;2247;42.666;23.292;2023-01-30T14:32:51;94052.94;;;4.09;56.28
4469;BME280;2247;42.666;23.292;2023-01-30T14:35:28;94051.75;;;4.17;56.07
4469;BME280;2247;42.666;23.292;2023-01-30T14:38:10;94039.13;;;3.92;56.09
4469;BME280;2247;42.666;23.292;2023-01-30T14:40:42;94052.78;;;3.82;56.58
4469;BME280;2247;42.666;23.292;2023-01-30T14:43:48;94046.56;;;3.83;57.11
4469;BME280;2247;42.666;23.292;2023-01-30T14:46:46;94038.09;;;3.76;56.89
4469;BME280;2247;42.666;23.292;2023-01-30T14:49:30;94035.09;;;3.68;56.99
4469;BME280;2247;42.666;23.292;2023-01-30T14:51:58;94016.09;;;3.50;57.49
4469;BME280;2247;42.666;23.292;2023-01-30T14:54:39;94020.59;;;3.38;57.94
4469;BME280;2247;42.666;23.292;2023-01-30T14:57:21;94023.97;;;3.55;58.15
4469;BME280;2247;42.666;23.292;2023-01-30T14:59:54;94022.88;;;3.51;58.23
4469;BME280;2247;42.666;23.292;2023-01-30T15:02:24;94023.66;;;3.69;58.64
4469;BME280;2247;42.666;23.292;2023-01-30T15:05:01;94007.19;;;4.18;61.84
4469;BME280;2247;42.666;23.292;2023-01-30T15:07:35;94000.66;;;4.38;56.83
4469;BME280;2247;42.666;23.292;2023-01-30T15:10:10;94001.72;;;3.65;57.10
4469;BME280;2247;42.666;23.292;2023-01-30T15:13:12;94009.69;;;3.41;58.12
4469;BME280;2247;42.666;23.292;2023-01-30T15:15:51;94007.84;;;3.25;58.77
4469;BME280;2247;42.666;23.292;2023-01-30T15:18:39;94009.88;;;3.06;59.01
4469;BME280;2247;42.666;23.292;2023-01-30T15:21:33;94012.59;;;3.00;59.40
4469;BME280;2247;42.666;23.292;2023-01-30T15:27:18;94017.66;;;2.78;60.12
4469;BME280;2247;42.666;23.292;2023-01-30T15:30:16;94020.03;;;2.80;59.90
4469;BME280;2247;42.666;23.292;2023-01-30T15:32:47;94021.13;;;2.95;59.39
4469;BME280;2247;42.666;23.292;2023-01-30T15:35:24;94014.38;;;2.83;59.23
4469;BME280;2247;42.666;23.292;2023-01-30T15:37:55;94017.34;;;2.74;59.30
4469;BME280;2247;42.666;23.292;2023-01-30T15:40:24;94019.03;;;2.81;59.27
4469;BME280;2247;42.666;23.292;2023-01-30T15:43:03;94030.78;;;2.83;59.57
4469;BME280;2247;42.666;23.292;2023-01-30T15:45:43;94025.00;;;2.53;59.74
4469;BME280;2247;42.666;23.292;2023-01-30T15:48:44;94022.28;;;2.48;60.23
4469;BME280;2247;42.666;23.292;2023-01-30T15:51:18;94025.13;;;2.46;60.55
4469;BME280;2247;42.666;23.292;2023-01-30T15:53:50;94005.03;;;2.42;59.99
4469;BME280;2247;42.666;23.292;2023-01-30T15:56:20;94016.59;;;2.62;59.94
4469;BME280;2247;42.666;23.292;2023-01-30T15:58:50;94022.16;;;2.54;60.01
4469;BME280;2247;42.666;23.292;2023-01-30T16:01:19;94022.38;;;2.93;59.23
4469;BME280;2247;42.666;23.292;2023-01-30T16:03:48;94018.38;;;3.02;58.72
4469;BME280;2247;42.666;23.292;2023-01-30T16:06:27;94017.25;;;2.98;58.44
4469;BME280;2247;42.666;23.292;2023-01-30T16:08:57;94025.09;;;2.86;58.56
4469;BME280;2247;42.666;23.292;2023-01-30T16:11:36;94015.78;;;2.73;58.86
4469;BME280;2247;42.666;23.292;2023-01-30T16:14:05;94004.81;;;2.71;58.98
4469;BME280;2247;42.666;23.292;2023-01-30T16:16:34;94004.06;;;2.59;59.09
4469;BME280;2247;42.666;23.292;2023-01-30T16:19:03;94009.81;;;2.61;59.55
4469;BME280;2247;42.666;23.292;2023-01-30T16:21:35;94004.41;;;2.51;59.65
4469;BME280;2247;42.666;23.292;2023-01-30T16:24:13;94004.41;;;2.51;59.68
4469;BME280;2247;42.666;23.292;2023-01-30T16:26:45;93992.59;;;2.32;60.01
4469;BME280;2247;42.666;23.292;2023-01-30T16:29:15;94006.91;;;2.46;60.22
4469;BME280;2247;42.666;23.292;2023-01-30T16:31:45;94012.56;;;2.43;60.15
4469;BME280;2247;42.666;23.292;2023-01-30T16:34:27;93996.44;;;2.41;60.48
4469;BME280;2247;42.666;23.292;2023-01-30T16:37:00;94006.34;;;2.44;60.15
4469;BME280;2247;42.666;23.292;2023-01-30T16:39:30;94006.78;;;2.53;59.75
4469;BME280;2247;42.666;23.292;2023-01-30T16:41:58;93992.91;;;2.47;59.70
4469;BME280;2247;42.666;23.292;2023-01-30T16:44:28;93993.22;;;2.62;59.29
4469;BME280;2247;42.666;23.292;2023-01-30T16:46:58;94007.66;;;2.58;58.87
4469;BME280;2247;42.666;23.292;2023-01-30T16:49:42;94004.91;;;2.76;58.15
4469;BME280;2247;42.666;23.292;2023-01-30T16:52:18;93999.72;;;2.65;58.00
4469;BME280;2247;42.666;23.292;2023-01-30T16:54:48;94006.00;;;2.52;57.90
4469;BME280;2247;42.666;23.292;2023-01-30T16:57:26;93995.16;;;2.44;58.19
4469;BME280;2247;42.666;23.292;2023-01-30T16:59:56;94000.34;;;2.44;58.02
4469;BME280;2247;42.666;23.292;2023-01-30T17:02:30;93993.59;;;2.31;57.79
4469;BME280;2247;42.666;23.292;2023-01-30T17:05:17;93997.09;;;2.36;57.71
4469;BME280;2247;42.666;23.292;2023-01-30T17:10:55;94005.69;;;2.49;56.36
4469;BME280;2247;42.666;23.292;2023-01-30T17:13:31;94012.91;;;2.47;56.32
4469;BME280;2247;42.666;23.292;2023-01-30T17:16:32;94019.66;;;2.59;56.10
4469;BME280;2247;42.666;23.292;2023-01-30T17:19:00;94010.63;;;2.90;55.25
4469;BME280;2247;42.666;23.292;2023-01-30T17:21:29;93991.44;;;2.80;54.93
4469;BME280;2247;42.666;23.292;2023-01-30T17:23:58;94013.47;;;2.89;54.80
4469;BME280;2247;42.666;23.292;2023-01-30T17:26:28;94008.44;;;2.99;54.56
4469;BME280;2247;42.666;23.292;2023-01-30T17:28:55;94005.28;;;2.97;54.23
4469;BME280;2247;42.666;23.292;2023-01-30T17:31:22;93994.03;;;2.80;54.33
4469;BME280;2247;42.666;23.292;2023-01-30T17:33:51;93990.97;;;2.83;54.45
4469;BME280;2247;42.666;23.292;2023-01-30T17:36:19;93996.50;;;2.86;54.25
4469;BME280;2247;42.666;23.292;2023-01-30T17:38:47;93995.03;;;2.78;54.47
4469;BME280;2247;42.666;23.292;2023-01-30T17:41:18;93991.06;;;2.88;54.71
4469;BME280;2247;42.666;23.292;2023-01-30T17:43:47;93985.28;;;2.86;54.52
4469;BME280;2247;42.666;23.292;2023-01-30T17:46:14;93969.13;;;2.84;54.67
4469;BME280;2247;42.666;23.292;2023-01-30T17:48:42;93981.72;;;2.75;55.07
4469;BME280;2247;42.666;23.292;2023-01-30T17:51:10;93974.75;;;2.64;55.15
4469;BME280;2247;42.666;23.292;2023-01-30T17:53:39;93979.72;;;2.65;55.54
4469;BME280;2247;42.666;23.292;2023-01-30T17:56:14;93973.50;;;2.66;55.53
4469;BME280;2247;42.666;23.292;2023-01-30T17:58:43;93980.28;;;2.67;55.46
4469;BME280;2247;42.666;23.292;2023-01-30T18:01:13;93973.56;;;2.83;55.58
4469;BME280;2247;42.666;23.292;2023-01-30T18:03:44;93977.56;;;2.74;55.90
4469;BME280;2247;42.666;23.292;2023-01-30T18:06:12;93975.88;;;2.96;55.65
4469;BME280;2247;42.666;23.292;2023-01-30T18:08:40;93979.16;;;3.37;55.00
4469;BME280;2247;42.666;23.292;2023-01-30T18:11:07;93972.75;;;3.61;54.40
4469;BME280;2247;42.666;23.292;2023-01-30T18:13:37;93978.50;;;3.80;54.19
4469;BME280;2247;42.666;23.292;2023-01-30T18:16:08;93978.56;;;4.23;53.22
4469;BME280;2247;42.666;23.292;2023-01-30T18:18:40;93979.97;;;4.31;52.86
4469;BME280;2247;42.666;23.292;2023-01-30T18:21:07;93981.25;;;4.50;52.29
4469;BME280;2247;42.666;23.292;2023-01-30T18:23:35;93992.69;;;4.71;51.72
4469;BME280;2247;42.666;23.292;2023-01-30T18:26:02;93975.50;;;4.97;51.13
4469;BME280;2247;42.666;23.292;2023-01-30T18:28:29;93978.91;;;5.24;50.15
4469;BME280;2247;42.666;23.292;2023-01-30T18:30:56;93970.56;;;5.27;49.99
4469;BME280;2247;42.666;23.292;2023-01-30T18:33:24;93976.81;;;5.53;49.49
4469;BME280;2247;42.666;23.292;2023-01-30T18:35:53;93981.25;;;5.52;49.13
4469;BME280;2247;42.666;23.292;2023-01-30T18:38:20;93986.16;;;5.49;49.00
4469;BME280;2247;42.666;23.292;2023-01-30T18:40:47;93973.25;;;5.32;49.69
4469;BME280;2247;42.666;23.292;2023-01-30T18:43:15;93976.84;;;5.58;49.27
4469;BME280;2247;42.666;23.292;2023-01-30T18:45:43;93980.81;;;5.66;48.68
4469;BME280;2247;42.666;23.292;2023-01-30T18:48:10;93983.94;;;5.68;48.75
4469;BME280;2247;42.666;23.292;2023-01-30T18:50:37;93990.06;;;5.78;48.09
4469;BME280;2247;42.666;23.292;2023-01-30T18:53:05;93986.94;;;5.81;48.12
4469;BME280;2247;42.666;23.292;2023-01-30T18:55:33;93987.47;;;5.83;47.92
4469;BME280;2247;42.666;23.292;2023-01-30T18:58:00;93976.75;;;5.80;47.79
4469;BME280;2247;42.666;23.292;2023-01-30T19:00:28;93991.38;;;5.81;47.72
4469;BME280;2247;42.666;23.292;2023-01-30T19:02:54;93989.13;;;5.89;48.06
4469;BME280;2247;42.666;23.292;2023-01-30T19:05:22;93988.06;;;5.90;47.86
4469;BME280;2247;42.666;23.292;2023-01-30T19:07:49;93971.06;;;5.88;47.69
4469;BME280;2247;42.666;23.292;2023-01-30T19:10:18;93983.88;;;5.89;47.92
4469;BME280;2247;42.666;23.292;2023-01-30T19:12:46;93989.66;;;5.91;47.63
4469;BME280;2247;42.666;23.292;2023-01-30T19:15:30;93985.09;;;5.82;47.45
4469;BME280;2247;42.666;23.292;2023-01-30T19:18:00;93995.16;;;5.63;47.85